Penwell, Texas
Current Conditions -  °F | °C
As of 6:53 AM on Tuesday 21 Oct 2014 (Local Time) from KODO Reporting Station
Few Clouds Few Clouds  
Wind Chill: 58°   Ceiling: Unl
Heat Index: 58°   Visibility: 10mi
Dew Point: 52°   Wind: 6mph
Humidity: 81%   Direction: 130°SE
Pressure: 30.1"   Gusts: NA
Location:  31.74°N, 102.59°W
Report Text: KODO 211153Z AUTO 13005KT 10SM FEW085 14/11 A3010 RMK AO2 SLP160 T01440111 10178 20144 53005
Loading
Personal Weather Stations






























Interactive Weather Map
Tropical Storm Tracking
New forecast layout! Learn more

10-Day Weather Forecast

Advertisements
Track Severe Weather on mobile